Marit Maersk — OUJN2 — position and weather

sailwx.info

Track history (hours):
 
Tides and Currents Weather Stations Pressure Air Temp Water Temp Dewpoint Dewpoint Depression Visibility Wind Speed Wind Dir Waves Ship Positions

Marit Maersk

Last reported at 2017-Sep-19 08:46 UTC. Time now 2017-Sep-25 15:09 UTC.
Position N 38°10' W 124°26'.

Length 367 m; draft 11.7 m.

Type: Ship (hazmat cat A). MMSI: 220597000.

Date/timePositionNaut miles runAvg speedWind from/ knotsBaromVisibWave heightAir tempDewpointWater temp
2017-Sep-19 08:46N 38°10' W 124°26'413.2
2017-Sep-19 08:30N 38°10' W 124°22'613.1
2017-Sep-19 08:00N 38°10' W 124°14'713.0
2017-Sep-19 07:30N 38°10' W 124°05'713.0
2017-Sep-19 07:00N 38°10' W 123°57'713.3
2017-Sep-19 06:30N 38°10' W 123°49'713.0
2017-Sep-19 06:00N 38°10' W 123°40'612.7
2017-Sep-19 05:30N 38°10' W 123°32'612.3
2017-Sep-19 05:00N 38°10' W 123°24'5 9.4
2017-Sep-19 04:30N 38°08' W 123°19'510.1
2017-Sep-19 04:00N 38°04' W 123°15'510.0
2017-Sep-19 03:30N 38°00' W 123°11'5 9.8
2017-Sep-19 03:00N 37°57' W 123°06'5 9.9
2017-Sep-19 02:30N 37°55' W 123°00'5 9.5
2017-Sep-19 02:00N 37°52' W 122°55'5 9.8
2017-Sep-19 01:30N 37°50' W 122°50'5 9.8
2017-Sep-19 01:00N 37°47' W 122°44'5 9.3
2017-Sep-19 00:30N 37°46' W 122°39'816.3
2017-Sep-19 00:00N 37°49' W 122°29'611.6
2017-Sep-18 23:31N 37°48' W 122°22'2 5.0
2017-Sep-18 23:00N 37°48' W 122°19'0 0.1
2017-Sep-18 22:28N 37°48' W 122°19'0 0.0
2017-Sep-18 21:55N 37°48' W 122°19'0 0.0
2017-Sep-18 21:28N 37°48' W 122°19'0 0.0
2017-Sep-18 20:58N 37°48' W 122°19'0 0.0
2017-Sep-18 20:28N 37°48' W 122°19'0 0.0
2017-Sep-18 19:58N 37°48' W 122°19'0 0.0
2017-Sep-18 19:28N 37°48' W 122°19'0 0.0
2017-Sep-18 18:58N 37°48' W 122°19'0 0.0
2017-Sep-18 18:28N 37°48' W 122°19'0 0.0
2017-Sep-18 17:58N 37°48' W 122°19'0 0.0
2017-Sep-18 17:28N 37°48' W 122°19'0 0.0
2017-Sep-18 16:58N 37°48' W 122°19'0 0.0
2017-Sep-18 16:28N 37°48' W 122°19'0 0.0
2017-Sep-18 15:58N 37°48' W 122°19'0 0.0
2017-Sep-18 15:28N 37°48' W 122°19'0 0.0
2017-Sep-18 14:58N 37°48' W 122°19'0 0.0
2017-Sep-18 14:28N 37°48' W 122°19'0 0.0
2017-Sep-18 13:59N 37°48' W 122°19'0 0.0
2017-Sep-18 13:29N 37°48' W 122°19'0 0.0
2017-Sep-18 12:58N 37°48' W 122°19'0 0.0
2017-Sep-18 12:29N 37°48' W 122°19'0 0.0
2017-Sep-18 11:58N 37°48' W 122°19'0 0.0
2017-Sep-18 11:29N 37°48' W 122°19'0 0.0
2017-Sep-18 10:58N 37°48' W 122°19'0 0.0
2017-Sep-18 10:28N 37°48' W 122°19'0 0.0
2017-Sep-18 09:55N 37°48' W 122°19'0 0.0
2017-Sep-18 09:28N 37°48' W 122°19'0 0.0
2017-Sep-18 08:58N 37°48' W 122°19'0 0.0
2017-Sep-18 08:28N 37°48' W 122°19'0 0.0
2017-Sep-18 07:58N 37°48' W 122°19'0 0.0
2017-Sep-18 07:28N 37°48' W 122°19'0 0.0
2017-Sep-18 06:58N 37°48' W 122°19'0 0.0
2017-Sep-18 06:28N 37°48' W 122°19'0 0.0
2017-Sep-18 05:55N 37°48' W 122°19'0 0.0
2017-Sep-18 05:28N 37°48' W 122°19'0 0.0
2017-Sep-18 04:58N 37°48' W 122°19'0 0.0
2017-Sep-18 04:29N 37°48' W 122°19'0 0.0
2017-Sep-18 03:58N 37°48' W 122°19'0 0.0
2017-Sep-18 03:28N 37°48' W 122°19'0 0.0
2017-Sep-18 02:58N 37°48' W 122°19'0 0.0
2017-Sep-18 02:28N 37°48' W 122°19'0 0.0
2017-Sep-18 01:58N 37°48' W 122°19'0 0.0
2017-Sep-18 01:28N 37°48' W 122°19'0 0.0
2017-Sep-18 00:58N 37°48' W 122°19'0 0.0
2017-Sep-18 00:28N 37°48' W 122°19'0 0.0
2017-Sep-17 23:58N 37°48' W 122°19'0 0.0
2017-Sep-17 23:28N 37°48' W 122°19'0 0.0
2017-Sep-17 22:58N 37°48' W 122°19'0 0.0
2017-Sep-17 22:25N 37°48' W 122°19'0 0.0
2017-Sep-17 21:58N 37°48' W 122°19'0 0.0
2017-Sep-17 21:28N 37°48' W 122°19'0 0.0
2017-Sep-17 20:59N 37°48' W 122°19'0 0.0
2017-Sep-17 20:29N 37°48' W 122°19'0 0.0
2017-Sep-17 20:00N 37°48' W 122°19'0 0.5
2017-Sep-17 19:30N 37°48' W 122°19'1 2.1
2017-Sep-17 19:00N 37°48' W 122°17'1 2.0
2017-Sep-17 18:31N 37°48' W 122°19'2 4.5
2017-Sep-17 18:01N 37°48' W 122°21'611.1
2017-Sep-17 17:30N 37°49' W 122°28'714.9
2017-Sep-17 17:00N 37°46' W 122°37'510.1
2017-Sep-17 16:30N 37°42' W 122°40'612.7
2017-Sep-17 16:01N 37°35' W 122°40'612.7
2017-Sep-17 15:31N 37°29' W 122°39'612.5
2017-Sep-17 15:00N 37°23' W 122°40'612.6
2017-Sep-17 14:30N 37°17' W 122°40'612.4
2017-Sep-17 14:00N 37°10' W 122°39'612.9
2017-Sep-17 13:30N 37°05' W 122°36'712.7
2017-Sep-17 12:59N 36°58' W 122°33'712.7
2017-Sep-17 12:25N 36°52' W 122°29'512.6
2017-Sep-17 12:00N 36°47' W 122°27'612.6
2017-Sep-17 11:30N 36°41' W 122°24'612.6
2017-Sep-17 11:00N 36°35' W 122°22'612.2
2017-Sep-17 10:30N 36°29' W 122°19'612.3
2017-Sep-17 10:00N 36°24' W 122°16'912.1
2017-Sep-17 09:15N 36°16' W 122°11'311.9
2017-Sep-17 09:00N 36°13' W 122°09'612.0
2017-Sep-17 08:30N 36°08' W 122°05'4312.2
2017-Sep-17 04:58N 35°30' W 121°39'612.3
2017-Sep-17 04:30N 35°26' W 121°35'612.3
2017-Sep-17 04:00N 35°20' W 121°31'612.2
2017-Sep-17 03:30N 35°15' W 121°28'612.3
2017-Sep-17 03:00N 35°10' W 121°23'612.1
2017-Sep-17 02:30N 35°05' W 121°19'612.0
2017-Sep-17 02:00N 34°60' W 121°15'612.1
2017-Sep-17 01:30N 34°55' W 121°11'611.9
2017-Sep-17 01:00N 34°50' W 121°07'611.9
2017-Sep-17 00:30N 34°45' W 121°03'611.9
2017-Sep-17 00:00N 34°40' W 120°59'611.8
2017-Sep-16 23:29N 34°35' W 120°55'2 4.0
2017-Sep-16 23:00N 34°34' W 120°53'0 0.6
2017-Sep-16 22:30N 34°34' W 120°53'0 0.8
2017-Sep-16 22:00N 34°34' W 120°53'0 0.9
2017-Sep-16 21:30N 34°34' W 120°54'0 0.8
2017-Sep-16 21:00N 34°34' W 120°54'1 1.9
2017-Sep-16 20:30N 34°34' W 120°55'1 1.0
2017-Sep-16 20:00N 34°34' W 120°56'0 0.8
2017-Sep-16 19:30N 34°34' W 120°56'0 0.8
2017-Sep-16 19:00N 34°34' W 120°57'0 1.0
2017-Sep-16 18:30N 34°33' W 120°56'2 3.7
2017-Sep-16 18:00N 34°32' W 120°55'4 8.1
2017-Sep-16 17:30N 34°28' W 120°54'4 8.9
2017-Sep-16 17:00N 34°26' W 120°49'5 9.6
2017-Sep-16 16:29N 34°24' W 120°43'5 9.8
2017-Sep-16 16:00N 34°23' W 120°38'510.0
2017-Sep-16 15:30N 34°22' W 120°32'510.0
2017-Sep-16 14:59N 34°20' W 120°26'510.0
2017-Sep-16 14:30N 34°19' W 120°20'510.0
2017-Sep-16 14:00N 34°18' W 120°14'5 9.9
2017-Sep-16 13:30N 34°16' W 120°08'5 9.8
2017-Sep-16 12:57N 34°15' W 120°02'4 9.8
2017-Sep-16 12:30N 34°14' W 119°57'510.0
2017-Sep-16 11:59N 34°12' W 119°51'5 9.8
2017-Sep-16 11:30N 34°11' W 119°45'5 9.7
2017-Sep-16 11:00N 34°10' W 119°40'5 9.4
2017-Sep-16 10:30N 34°09' W 119°34'5 9.3
2017-Sep-16 09:58N 34°07' W 119°28'5 9.1
2017-Sep-16 09:28N 34°06' W 119°23'4 9.4
2017-Sep-16 09:00N 34°05' W 119°18'5 9.4
2017-Sep-16 08:30N 34°03' W 119°13'5 9.3
2017-Sep-16 08:00N 34°01' W 119°08'5 9.2
2017-Sep-16 07:30N 33°59' W 119°03'5 9.6
2017-Sep-16 06:59N 33°56' W 118°58'510.0
2017-Sep-16 06:30N 33°54' W 118°53'5 9.8
2017-Sep-16 06:00N 33°52' W 118°48'5 9.9
2017-Sep-16 05:30N 33°49' W 118°43'510.3
2017-Sep-16 04:59N 33°46' W 118°37'510.2
2017-Sep-16 04:28N 33°44' W 118°32'510.5
2017-Sep-16 04:00N 33°41' W 118°26'610.3
2017-Sep-16 03:28N 33°38' W 118°21'510.2
2017-Sep-16 03:00N 33°39' W 118°15'5 9.1
2017-Sep-16 02:30N 33°42' W 118°11'3 6.6
2017-Sep-16 02:00N 33°45' W 118°13'1 2.0
2017-Sep-16 01:29N 33°45' W 118°14'0 0.1
2017-Sep-16 00:35N 33°45' W 118°14'0 0.0
2017-Sep-16 00:23N 33°45' W 118°14'0 0.0
2017-Sep-15 23:53N 33°45' W 118°14'0 0.0
2017-Sep-15 23:29N 33°45' W 118°14'0 0.0
2017-Sep-15 22:59N 33°45' W 118°14'0 0.0
2017-Sep-15 22:29N 33°45' W 118°14'0 0.0
2017-Sep-15 21:53N 33°45' W 118°14'0 0.0
2017-Sep-15 21:29N 33°45' W 118°14'0 0.0
2017-Sep-15 20:59N 33°45' W 118°14'0 0.0
2017-Sep-15 20:29N 33°45' W 118°14'0 0.0
2017-Sep-15 19:59N 33°45' W 118°14'0 0.0
2017-Sep-15 19:23N 33°45' W 118°14'0 0.0
2017-Sep-15 18:59N 33°45' W 118°14'0 0.0
2017-Sep-15 18:23N 33°45' W 118°14'0 0.0
2017-Sep-15 17:59N 33°45' W 118°14'0 0.0
2017-Sep-15 17:29N 33°45' W 118°14'0 0.0
2017-Sep-15 16:59N 33°45' W 118°14'0 0.0
2017-Sep-15 16:23N 33°45' W 118°14'0 0.0
2017-Sep-15 15:53N 33°45' W 118°14'0 0.0
2017-Sep-15 15:29N 33°45' W 118°14'0 0.0
2017-Sep-15 14:59N 33°45' W 118°14'0 0.0
2017-Sep-15 14:11N 33°45' W 118°14'0 0.0
2017-Sep-15 13:47N 33°45' W 118°14'0 0.0
2017-Sep-15 13:17N 33°45' W 118°14'0 0.0
2017-Sep-15 12:59N 33°45' W 118°14'0 0.0
2017-Sep-15 12:29N 33°45' W 118°14'0 0.0
2017-Sep-15 11:59N 33°45' W 118°14'0 0.0
2017-Sep-15 11:23N 33°45' W 118°14'0 0.0
2017-Sep-15 10:41N 33°45' W 118°14'0 0.0
2017-Sep-15 10:29N 33°45' W 118°14'0 0.0
2017-Sep-15 09:53N 33°45' W 118°14'0 0.0
2017-Sep-15 08:29N 33°45' W 118°14'0 0.0
2017-Sep-15 07:59N 33°45' W 118°14'0 0.0
2017-Sep-15 07:29N 33°45' W 118°14'0 0.0
2017-Sep-15 06:59N 33°45' W 118°14'0 0.0
2017-Sep-15 06:29N 33°45' W 118°14'0 0.0
2017-Sep-15 05:59N 33°45' W 118°14'0 0.0
2017-Sep-15 05:23N 33°45' W 118°14'0 0.0
2017-Sep-15 04:53N 33°45' W 118°14'0 0.0
2017-Sep-15 04:29N 33°45' W 118°14'0 0.0
2017-Sep-15 03:41N 33°45' W 118°14'0 0.0
2017-Sep-15 03:23N 33°45' W 118°14'0 0.0
2017-Sep-15 02:53N 33°45' W 118°14'0 0.0
2017-Sep-15 02:29N 33°45' W 118°14'0 0.0
2017-Sep-15 01:53N 33°45' W 118°14'0 0.0
2017-Sep-15 01:29N 33°45' W 118°14'0 0.0
2017-Sep-15 00:53N 33°45' W 118°14'0 0.0
2017-Sep-15 00:17N 33°45' W 118°14'0 0.0
2017-Sep-14 23:59N 33°45' W 118°14'0 0.0
2017-Sep-14 23:29N 33°45' W 118°14'0 0.0
2017-Sep-14 22:53N 33°45' W 118°14'0 0.0
2017-Sep-14 22:23N 33°45' W 118°14'0 0.0
2017-Sep-14 21:59N 33°45' W 118°14'0 0.0
2017-Sep-14 21:17N 33°45' W 118°14'0 0.0
2017-Sep-14 20:53N 33°45' W 118°14'0 0.0
2017-Sep-14 20:29N 33°45' W 118°14'0 0.0
2017-Sep-14 19:59N 33°45' W 118°14'0 0.0
2017-Sep-14 19:23N 33°45' W 118°14'0 0.0
2017-Sep-14 18:53N 33°45' W 118°14'0 0.0
2017-Sep-14 18:29N 33°45' W 118°14'0 0.0
2017-Sep-14 17:56N 33°45' W 118°14'0 0.0
2017-Sep-14 17:23N 33°45' W 118°14'0 0.0
2017-Sep-14 16:59N 33°45' W 118°14'0 0.0
2017-Sep-14 16:29N 33°45' W 118°14'0 0.0
2017-Sep-14 15:59N 33°45' W 118°14'0 0.0
2017-Sep-14 15:29N 33°45' W 118°14'0 0.0
2017-Sep-14 14:59N 33°45' W 118°14'0 0.0
2017-Sep-14 14:29N 33°45' W 118°14'0 0.0
2017-Sep-14 13:59N 33°45' W 118°14'0 0.0
2017-Sep-14 13:29N 33°45' W 118°14'0 0.0
2017-Sep-14 12:59N 33°45' W 118°14'0 0.0
2017-Sep-14 12:23N 33°45' W 118°14'0 0.0
2017-Sep-14 11:53N 33°45' W 118°14'0 0.0
2017-Sep-14 11:23N 33°45' W 118°14'0 0.0
2017-Sep-14 10:47N 33°45' W 118°14'0 0.0
2017-Sep-14 10:29N 33°45' W 118°14'0 0.0
2017-Sep-14 09:53N 33°45' W 118°14'0 0.0
2017-Sep-14 09:29N 33°45' W 118°14'0 0.0
2017-Sep-14 08:59N 33°45' W 118°14'0 0.0
2017-Sep-14 08:23N 33°45' W 118°14'0 0.0
2017-Sep-14 07:59N 33°45' W 118°14'0 0.0
2017-Sep-14 07:29N 33°45' W 118°14'0 0.0
2017-Sep-14 06:59N 33°45' W 118°14'0 0.0
2017-Sep-14 06:11N 33°45' W 118°14'0 0.0
2017-Sep-14 05:59N 33°45' W 118°14'0 0.0
2017-Sep-14 05:29N 33°45' W 118°14'0 0.0
2017-Sep-14 04:59N 33°45' W 118°14'0 0.0
2017-Sep-14 04:29N 33°45' W 118°14'0 0.0
2017-Sep-14 03:59N 33°45' W 118°14'0 0.0
2017-Sep-14 03:23N 33°45' W 118°14'0 0.0
2017-Sep-14 02:59N 33°45' W 118°14'0 0.0
2017-Sep-14 02:29N 33°45' W 118°14'0 0.0
2017-Sep-14 01:59N 33°45' W 118°14'0 0.0
2017-Sep-14 01:29N 33°45' W 118°14'0 0.0
2017-Sep-14 00:59N 33°45' W 118°14'0 0.0
2017-Sep-14 00:29N 33°45' W 118°14'0 0.0
2017-Sep-13 23:59N 33°45' W 118°14'0 0.0
2017-Sep-13 23:23N 33°45' W 118°14'0 0.0
2017-Sep-13 22:53N 33°45' W 118°14'0 0.0
2017-Sep-13 22:29N 33°45' W 118°14'0 0.0
2017-Sep-13 21:53N 33°45' W 118°14'0 0.0
2017-Sep-13 21:29N 33°45' W 118°14'0 0.0
2017-Sep-13 20:59N 33°45' W 118°14'0 0.0
2017-Sep-13 20:29N 33°45' W 118°14'0 0.0
2017-Sep-13 19:59N 33°45' W 118°14'0 0.0
2017-Sep-13 19:23N 33°45' W 118°14'0 0.0
2017-Sep-13 18:53N 33°45' W 118°14'0 0.0
2017-Sep-13 18:29N 33°45' W 118°14'0 0.0
2017-Sep-13 17:59N 33°45' W 118°14'0 0.0
2017-Sep-13 17:23N 33°45' W 118°14'0 0.0
2017-Sep-13 16:53N 33°45' W 118°14'0 0.0
2017-Sep-13 16:29N 33°45' W 118°14'0 0.0
2017-Sep-13 15:53N 33°45' W 118°14'0 0.0
2017-Sep-13 15:23N 33°45' W 118°14'0 0.0
2017-Sep-13 14:59N 33°45' W 118°14'0 0.0
2017-Sep-13 14:29N 33°45' W 118°14'0 0.0
2017-Sep-13 13:53N 33°45' W 118°14'0 0.0
2017-Sep-13 13:29N 33°45' W 118°14'0 0.0
2017-Sep-13 12:59N 33°45' W 118°14'0 0.0
2017-Sep-13 12:29N 33°45' W 118°14'0 0.0
2017-Sep-13 11:59N 33°45' W 118°14'0 0.0
2017-Sep-13 11:11N 33°45' W 118°14'0 0.0
2017-Sep-13 10:59N 33°45' W 118°14'0 0.0
2017-Sep-13 10:29N 33°45' W 118°14'0 0.0
2017-Sep-13 09:59N 33°45' W 118°14'0 0.0
2017-Sep-13 09:23N 33°45' W 118°14'0 0.0
2017-Sep-13 08:59N 33°45' W 118°14'0 0.0
2017-Sep-13 08:29N 33°45' W 118°14'0 0.0
2017-Sep-13 07:53N 33°45' W 118°14'0 0.0
2017-Sep-13 07:17N 33°45' W 118°14'0 0.0
2017-Sep-13 06:59N 33°45' W 118°14'0 0.0
2017-Sep-13 06:29N 33°45' W 118°14'0 0.0
2017-Sep-13 05:59N 33°45' W 118°14'0 0.0
2017-Sep-13 05:29N 33°45' W 118°14'0 0.0
2017-Sep-13 04:59N 33°45' W 118°14'0 0.0
2017-Sep-13 04:29N 33°45' W 118°14'0 0.0
2017-Sep-13 03:59N 33°45' W 118°14'0 0.0
2017-Sep-13 03:29N 33°45' W 118°14'0 0.0
2017-Sep-13 02:59N 33°45' W 118°14'0 0.0
2017-Sep-13 02:29N 33°45' W 118°14'0 0.0
2017-Sep-13 01:59N 33°45' W 118°14'0 0.0
2017-Sep-13 01:29N 33°45' W 118°14'0 0.0
2017-Sep-13 00:59N 33°45' W 118°14'0 0.0
2017-Sep-13 00:29N 33°45' W 118°14'0 0.0
2017-Sep-12 23:59N 33°45' W 118°14'0 0.0
2017-Sep-12 23:29N 33°45' W 118°14'0 0.0
2017-Sep-12 22:59N 33°45' W 118°14'0 0.0
2017-Sep-12 22:29N 33°45' W 118°14'0 0.0
2017-Sep-12 21:59N 33°45' W 118°14'0 0.0
2017-Sep-12 21:29N 33°45' W 118°14'0 0.0
2017-Sep-12 20:53N 33°45' W 118°14'0 0.0
2017-Sep-12 20:29N 33°45' W 118°14'0 0.0
2017-Sep-12 19:53N 33°45' W 118°14'0 0.0
2017-Sep-12 19:26N 33°45' W 118°14'0 0.0
2017-Sep-12 18:53N 33°45' W 118°14'0 0.0
2017-Sep-12 18:23N 33°45' W 118°14'0 0.0
2017-Sep-12 17:59N 33°45' W 118°14'0 0.0
2017-Sep-12 17:02N 33°45' W 118°14'0 0.0
2017-Sep-12 16:53N 33°45' W 118°14'0 0.0
2017-Sep-12 16:29N 33°45' W 118°14'0 0.0
2017-Sep-12 15:53N 33°45' W 118°14'0 0.0
2017-Sep-12 15:29N 33°45' W 118°14'0 0.0
2017-Sep-12 14:59N 33°45' W 118°14'0 0.0
2017-Sep-12 14:23N 33°45' W 118°14'0 0.0
2017-Sep-12 13:56N 33°45' W 118°14'0 0.0
2017-Sep-12 13:29N 33°45' W 118°14'0 0.0
2017-Sep-12 12:56N 33°45' W 118°14'0 0.0
2017-Sep-12 12:29N 33°45' W 118°14'0 0.0
2017-Sep-12 11:59N 33°45' W 118°14'0 0.0
2017-Sep-12 11:29N 33°45' W 118°14'0 0.0
2017-Sep-12 11:01N 33°45' W 118°14'1 1.9
2017-Sep-12 10:30N 33°45' W 118°13'4 7.9
2017-Sep-12 10:00N 33°42' W 118°11'4 8.7
2017-Sep-12 09:31N 33°38' W 118°13'510.2
2017-Sep-12 09:00N 33°36' W 118°19'510.9
2017-Sep-12 08:31N 33°38' W 118°25'611.6
2017-Sep-12 08:00N 33°41' W 118°31'611.6
2017-Sep-12 07:31N 33°44' W 118°37'611.5
2017-Sep-12 07:01N 33°47' W 118°43'611.2
2017-Sep-12 06:30N 33°49' W 118°49'611.3
2017-Sep-12 06:01N 33°52' W 118°55'611.4
2017-Sep-12 05:30N 33°55' W 119°01'611.3
2017-Sep-12 05:00N 33°58' W 119°07'612.6
2017-Sep-12 04:30N 34°01' W 119°13'918.1
2017-Sep-12 04:00N 34°04' W 119°24'1018.7
2017-Sep-12 03:29N 34°07' W 119°35'918.8
2017-Sep-12 03:01N 34°09' W 119°45'1019.2
2017-Sep-12 02:31N 34°12' W 119°56'918.7
2017-Sep-12 02:00N 34°14' W 120°07'918.4
2017-Sep-12 01:30N 34°17' W 120°18'918.5
2017-Sep-12 01:00N 34°19' W 120°29'1018.1
2017-Sep-12 00:29N 34°22' W 120°40'918.3
2017-Sep-12 00:00N 34°24' W 120°50'918.8
2017-Sep-11 23:30N 34°25' W 121°02'918.4
2017-Sep-11 23:00N 34°26' W 121°13'1018.3
2017-Sep-11 22:26N 34°26' W 121°25'818.0
2017-Sep-11 21:59N 34°27' W 121°35'918.6
2017-Sep-11 21:30N 34°28' W 121°46'1618.4
2017-Sep-11 20:37N 34°29' W 122°05'318.6
2017-Sep-11 20:29N 34°29' W 122°09'918.6
2017-Sep-11 20:00N 34°29' W 122°20'  
Track history (hours):
 
Tides and Currents Weather Stations Pressure Air Temp Water Temp Dewpoint Dewpoint Depression Visibility Wind Speed Wind Dir Waves Ship Positions

Marit Maersk

Last reported at 2017-Sep-19 08:46 UTC. Time now 2017-Sep-25 15:09 UTC.
Position N 38°10' W 124°26'.

Length 367 m; draft 11.7 m.

Type: Ship (hazmat cat A). MMSI: 220597000.

Date/timePositionNaut miles runAvg speedWind from/ knotsBaromVisibWave heightAir tempDewpointWater temp
2017-Sep-19 08:46N 38°10' W 124°26'413.2
2017-Sep-19 08:30N 38°10' W 124°22'613.1
2017-Sep-19 08:00N 38°10' W 124°14'713.0
2017-Sep-19 07:30N 38°10' W 124°05'713.0
2017-Sep-19 07:00N 38°10' W 123°57'713.3
2017-Sep-19 06:30N 38°10' W 123°49'713.0
2017-Sep-19 06:00N 38°10' W 123°40'612.7
2017-Sep-19 05:30N 38°10' W 123°32'612.3
2017-Sep-19 05:00N 38°10' W 123°24'5 9.4
2017-Sep-19 04:30N 38°08' W 123°19'510.1
2017-Sep-19 04:00N 38°04' W 123°15'510.0
2017-Sep-19 03:30N 38°00' W 123°11'5 9.8
2017-Sep-19 03:00N 37°57' W 123°06'5 9.9
2017-Sep-19 02:30N 37°55' W 123°00'5 9.5
2017-Sep-19 02:00N 37°52' W 122°55'5 9.8
2017-Sep-19 01:30N 37°50' W 122°50'5 9.8
2017-Sep-19 01:00N 37°47' W 122°44'5 9.3
2017-Sep-19 00:30N 37°46' W 122°39'816.3
2017-Sep-19 00:00N 37°49' W 122°29'611.6
2017-Sep-18 23:31N 37°48' W 122°22'2 5.0
2017-Sep-18 23:00N 37°48' W 122°19'0 0.1
2017-Sep-18 22:28N 37°48' W 122°19'0 0.0
2017-Sep-18 21:55N 37°48' W 122°19'0 0.0
2017-Sep-18 21:28N 37°48' W 122°19'0 0.0
2017-Sep-18 20:58N 37°48' W 122°19'0 0.0
2017-Sep-18 20:28N 37°48' W 122°19'0 0.0
2017-Sep-18 19:58N 37°48' W 122°19'0 0.0
2017-Sep-18 19:28N 37°48' W 122°19'0 0.0
2017-Sep-18 18:58N 37°48' W 122°19'0 0.0
2017-Sep-18 18:28N 37°48' W 122°19'0 0.0
2017-Sep-18 17:58N 37°48' W 122°19'0 0.0
2017-Sep-18 17:28N 37°48' W 122°19'0 0.0
2017-Sep-18 16:58N 37°48' W 122°19'0 0.0
2017-Sep-18 16:28N 37°48' W 122°19'0 0.0
2017-Sep-18 15:58N 37°48' W 122°19'0 0.0
2017-Sep-18 15:28N 37°48' W 122°19'0 0.0
2017-Sep-18 14:58N 37°48' W 122°19'0 0.0
2017-Sep-18 14:28N 37°48' W 122°19'0 0.0
2017-Sep-18 13:59N 37°48' W 122°19'0 0.0
2017-Sep-18 13:29N 37°48' W 122°19'0 0.0
2017-Sep-18 12:58N 37°48' W 122°19'0 0.0
2017-Sep-18 12:29N 37°48' W 122°19'0 0.0
2017-Sep-18 11:58N 37°48' W 122°19'0 0.0
2017-Sep-18 11:29N 37°48' W 122°19'0 0.0
2017-Sep-18 10:58N 37°48' W 122°19'0 0.0
2017-Sep-18 10:28N 37°48' W 122°19'0 0.0
2017-Sep-18 09:55N 37°48' W 122°19'0 0.0
2017-Sep-18 09:28N 37°48' W 122°19'0 0.0
2017-Sep-18 08:58N 37°48' W 122°19'0 0.0
2017-Sep-18 08:28N 37°48' W 122°19'0 0.0
2017-Sep-18 07:58N 37°48' W 122°19'0 0.0
2017-Sep-18 07:28N 37°48' W 122°19'0 0.0
2017-Sep-18 06:58N 37°48' W 122°19'0 0.0
2017-Sep-18 06:28N 37°48' W 122°19'0 0.0
2017-Sep-18 05:55N 37°48' W 122°19'0 0.0
2017-Sep-18 05:28N 37°48' W 122°19'0 0.0
2017-Sep-18 04:58N 37°48' W 122°19'0 0.0
2017-Sep-18 04:29N 37°48' W 122°19'0 0.0
2017-Sep-18 03:58N 37°48' W 122°19'0 0.0
2017-Sep-18 03:28N 37°48' W 122°19'0 0.0
2017-Sep-18 02:58N 37°48' W 122°19'0 0.0
2017-Sep-18 02:28N 37°48' W 122°19'0 0.0
2017-Sep-18 01:58N 37°48' W 122°19'0 0.0
2017-Sep-18 01:28N 37°48' W 122°19'0 0.0
2017-Sep-18 00:58N 37°48' W 122°19'0 0.0
2017-Sep-18 00:28N 37°48' W 122°19'0 0.0
2017-Sep-17 23:58N 37°48' W 122°19'0 0.0
2017-Sep-17 23:28N 37°48' W 122°19'0 0.0
2017-Sep-17 22:58N 37°48' W 122°19'0 0.0
2017-Sep-17 22:25N 37°48' W 122°19'0 0.0
2017-Sep-17 21:58N 37°48' W 122°19'0 0.0
2017-Sep-17 21:28N 37°48' W 122°19'0 0.0
2017-Sep-17 20:59N 37°48' W 122°19'0 0.0
2017-Sep-17 20:29N 37°48' W 122°19'0 0.0
2017-Sep-17 20:00N 37°48' W 122°19'0 0.5
2017-Sep-17 19:30N 37°48' W 122°19'1 2.1
2017-Sep-17 19:00N 37°48' W 122°17'1 2.0
2017-Sep-17 18:31N 37°48' W 122°19'2 4.5
2017-Sep-17 18:01N 37°48' W 122°21'611.1
2017-Sep-17 17:30N 37°49' W 122°28'714.9
2017-Sep-17 17:00N 37°46' W 122°37'510.1
2017-Sep-17 16:30N 37°42' W 122°40'612.7
2017-Sep-17 16:01N 37°35' W 122°40'612.7
2017-Sep-17 15:31N 37°29' W 122°39'612.5
2017-Sep-17 15:00N 37°23' W 122°40'612.6
2017-Sep-17 14:30N 37°17' W 122°40'612.4
2017-Sep-17 14:00N 37°10' W 122°39'612.9
2017-Sep-17 13:30N 37°05' W 122°36'712.7
2017-Sep-17 12:59N 36°58' W 122°33'712.7
2017-Sep-17 12:25N 36°52' W 122°29'512.6
2017-Sep-17 12:00N 36°47' W 122°27'612.6
2017-Sep-17 11:30N 36°41' W 122°24'612.6
2017-Sep-17 11:00N 36°35' W 122°22'612.2
2017-Sep-17 10:30N 36°29' W 122°19'612.3
2017-Sep-17 10:00N 36°24' W 122°16'912.1
2017-Sep-17 09:15N 36°16' W 122°11'311.9
2017-Sep-17 09:00N 36°13' W 122°09'612.0
2017-Sep-17 08:30N 36°08' W 122°05'4312.2
2017-Sep-17 04:58N 35°30' W 121°39'612.3
2017-Sep-17 04:30N 35°26' W 121°35'612.3
2017-Sep-17 04:00N 35°20' W 121°31'612.2
2017-Sep-17 03:30N 35°15' W 121°28'612.3
2017-Sep-17 03:00N 35°10' W 121°23'612.1
2017-Sep-17 02:30N 35°05' W 121°19'612.0
2017-Sep-17 02:00N 34°60' W 121°15'612.1
2017-Sep-17 01:30N 34°55' W 121°11'611.9
2017-Sep-17 01:00N 34°50' W 121°07'611.9
2017-Sep-17 00:30N 34°45' W 121°03'611.9
2017-Sep-17 00:00N 34°40' W 120°59'611.8
2017-Sep-16 23:29N 34°35' W 120°55'2 4.0
2017-Sep-16 23:00N 34°34' W 120°53'0 0.6
2017-Sep-16 22:30N 34°34' W 120°53'0 0.8
2017-Sep-16 22:00N 34°34' W 120°53'0 0.9
2017-Sep-16 21:30N 34°34' W 120°54'0 0.8
2017-Sep-16 21:00N 34°34' W 120°54'1 1.9
2017-Sep-16 20:30N 34°34' W 120°55'1 1.0
2017-Sep-16 20:00N 34°34' W 120°56'0 0.8
2017-Sep-16 19:30N 34°34' W 120°56'0 0.8
2017-Sep-16 19:00N 34°34' W 120°57'0 1.0
2017-Sep-16 18:30N 34°33' W 120°56'2 3.7
2017-Sep-16 18:00N 34°32' W 120°55'4 8.1
2017-Sep-16 17:30N 34°28' W 120°54'4 8.9
2017-Sep-16 17:00N 34°26' W 120°49'5 9.6
2017-Sep-16 16:29N 34°24' W 120°43'5 9.8
2017-Sep-16 16:00N 34°23' W 120°38'510.0
2017-Sep-16 15:30N 34°22' W 120°32'510.0
2017-Sep-16 14:59N 34°20' W 120°26'510.0
2017-Sep-16 14:30N 34°19' W 120°20'510.0
2017-Sep-16 14:00N 34°18' W 120°14'5 9.9
2017-Sep-16 13:30N 34°16' W 120°08'5 9.8
2017-Sep-16 12:57N 34°15' W 120°02'4 9.8
2017-Sep-16 12:30N 34°14' W 119°57'510.0
2017-Sep-16 11:59N 34°12' W 119°51'5 9.8
2017-Sep-16 11:30N 34°11' W 119°45'5 9.7
2017-Sep-16 11:00N 34°10' W 119°40'5 9.4
2017-Sep-16 10:30N 34°09' W 119°34'5 9.3
2017-Sep-16 09:58N 34°07' W 119°28'5 9.1
2017-Sep-16 09:28N 34°06' W 119°23'4 9.4
2017-Sep-16 09:00N 34°05' W 119°18'5 9.4
2017-Sep-16 08:30N 34°03' W 119°13'5 9.3
2017-Sep-16 08:00N 34°01' W 119°08'5 9.2
2017-Sep-16 07:30N 33°59' W 119°03'5 9.6
2017-Sep-16 06:59N 33°56' W 118°58'510.0
2017-Sep-16 06:30N 33°54' W 118°53'5 9.8
2017-Sep-16 06:00N 33°52' W 118°48'5 9.9
2017-Sep-16 05:30N 33°49' W 118°43'510.3
2017-Sep-16 04:59N 33°46' W 118°37'510.2
2017-Sep-16 04:28N 33°44' W 118°32'510.5
2017-Sep-16 04:00N 33°41' W 118°26'610.3
2017-Sep-16 03:28N 33°38' W 118°21'510.2
2017-Sep-16 03:00N 33°39' W 118°15'5 9.1
2017-Sep-16 02:30N 33°42' W 118°11'3 6.6
2017-Sep-16 02:00N 33°45' W 118°13'1 2.0
2017-Sep-16 01:29N 33°45' W 118°14'0 0.1
2017-Sep-16 00:35N 33°45' W 118°14'0 0.0
2017-Sep-16 00:23N 33°45' W 118°14'0 0.0
2017-Sep-15 23:53N 33°45' W 118°14'0 0.0
2017-Sep-15 23:29N 33°45' W 118°14'0 0.0
2017-Sep-15 22:59N 33°45' W 118°14'0 0.0
2017-Sep-15 22:29N 33°45' W 118°14'0 0.0
2017-Sep-15 21:53N 33°45' W 118°14'0 0.0
2017-Sep-15 21:29N 33°45' W 118°14'0 0.0
2017-Sep-15 20:59N 33°45' W 118°14'0 0.0
2017-Sep-15 20:29N 33°45' W 118°14'0 0.0
2017-Sep-15 19:59N 33°45' W 118°14'0 0.0
2017-Sep-15 19:23N 33°45' W 118°14'0 0.0
2017-Sep-15 18:59N 33°45' W 118°14'0 0.0
2017-Sep-15 18:23N 33°45' W 118°14'0 0.0
2017-Sep-15 17:59N 33°45' W 118°14'0 0.0
2017-Sep-15 17:29N 33°45' W 118°14'0 0.0
2017-Sep-15 16:59N 33°45' W 118°14'0 0.0
2017-Sep-15 16:23N 33°45' W 118°14'0 0.0
2017-Sep-15 15:53N 33°45' W 118°14'0 0.0
2017-Sep-15 15:29N 33°45' W 118°14'0 0.0
2017-Sep-15 14:59N 33°45' W 118°14'0 0.0
2017-Sep-15 14:11N 33°45' W 118°14'0 0.0
2017-Sep-15 13:47N 33°45' W 118°14'0 0.0
2017-Sep-15 13:17N 33°45' W 118°14'0 0.0
2017-Sep-15 12:59N 33°45' W 118°14'0 0.0
2017-Sep-15 12:29N 33°45' W 118°14'0 0.0
2017-Sep-15 11:59N 33°45' W 118°14'0 0.0
2017-Sep-15 11:23N 33°45' W 118°14'0 0.0
2017-Sep-15 10:41N 33°45' W 118°14'0 0.0
2017-Sep-15 10:29N 33°45' W 118°14'0 0.0
2017-Sep-15 09:53N 33°45' W 118°14'0 0.0
2017-Sep-15 08:29N 33°45' W 118°14'0 0.0
2017-Sep-15 07:59N 33°45' W 118°14'0 0.0
2017-Sep-15 07:29N 33°45' W 118°14'0 0.0
2017-Sep-15 06:59N 33°45' W 118°14'0 0.0
2017-Sep-15 06:29N 33°45' W 118°14'0 0.0
2017-Sep-15 05:59N 33°45' W 118°14'0 0.0
2017-Sep-15 05:23N 33°45' W 118°14'0 0.0
2017-Sep-15 04:53N 33°45' W 118°14'0 0.0
2017-Sep-15 04:29N 33°45' W 118°14'0 0.0
2017-Sep-15 03:41N 33°45' W 118°14'0 0.0
2017-Sep-15 03:23N 33°45' W 118°14'0 0.0
2017-Sep-15 02:53N 33°45' W 118°14'0 0.0
2017-Sep-15 02:29N 33°45' W 118°14'0 0.0
2017-Sep-15 01:53N 33°45' W 118°14'0 0.0
2017-Sep-15 01:29N 33°45' W 118°14'0 0.0
2017-Sep-15 00:53N 33°45' W 118°14'0 0.0
2017-Sep-15 00:17N 33°45' W 118°14'0 0.0
2017-Sep-14 23:59N 33°45' W 118°14'0 0.0
2017-Sep-14 23:29N 33°45' W 118°14'0 0.0
2017-Sep-14 22:53N 33°45' W 118°14'0 0.0
2017-Sep-14 22:23N 33°45' W 118°14'0 0.0
2017-Sep-14 21:59N 33°45' W 118°14'0 0.0
2017-Sep-14 21:17N 33°45' W 118°14'0 0.0
2017-Sep-14 20:53N 33°45' W 118°14'0 0.0
2017-Sep-14 20:29N 33°45' W 118°14'0 0.0
2017-Sep-14 19:59N 33°45' W 118°14'0 0.0
2017-Sep-14 19:23N 33°45' W 118°14'0 0.0
2017-Sep-14 18:53N 33°45' W 118°14'0 0.0
2017-Sep-14 18:29N 33°45' W 118°14'0 0.0
2017-Sep-14 17:56N 33°45' W 118°14'0 0.0
2017-Sep-14 17:23N 33°45' W 118°14'0 0.0
2017-Sep-14 16:59N 33°45' W 118°14'0 0.0
2017-Sep-14 16:29N 33°45' W 118°14'0 0.0
2017-Sep-14 15:59N 33°45' W 118°14'0 0.0
2017-Sep-14 15:29N 33°45' W 118°14'0 0.0
2017-Sep-14 14:59N 33°45' W 118°14'0 0.0
2017-Sep-14 14:29N 33°45' W 118°14'0 0.0
2017-Sep-14 13:59N 33°45' W 118°14'0 0.0
2017-Sep-14 13:29N 33°45' W 118°14'0 0.0
2017-Sep-14 12:59N 33°45' W 118°14'0 0.0
2017-Sep-14 12:23N 33°45' W 118°14'0 0.0
2017-Sep-14 11:53N 33°45' W 118°14'0 0.0
2017-Sep-14 11:23N 33°45' W 118°14'0 0.0
2017-Sep-14 10:47N 33°45' W 118°14'0 0.0
2017-Sep-14 10:29N 33°45' W 118°14'0 0.0
2017-Sep-14 09:53N 33°45' W 118°14'0 0.0
2017-Sep-14 09:29N 33°45' W 118°14'0 0.0
2017-Sep-14 08:59N 33°45' W 118°14'0 0.0
2017-Sep-14 08:23N 33°45' W 118°14'0 0.0
2017-Sep-14 07:59N 33°45' W 118°14'0 0.0
2017-Sep-14 07:29N 33°45' W 118°14'0 0.0
2017-Sep-14 06:59N 33°45' W 118°14'0 0.0
2017-Sep-14 06:11N 33°45' W 118°14'0 0.0
2017-Sep-14 05:59N 33°45' W 118°14'0 0.0
2017-Sep-14 05:29N 33°45' W 118°14'0 0.0
2017-Sep-14 04:59N 33°45' W 118°14'0 0.0
2017-Sep-14 04:29N 33°45' W 118°14'0 0.0
2017-Sep-14 03:59N 33°45' W 118°14'0 0.0
2017-Sep-14 03:23N 33°45' W 118°14'0 0.0
2017-Sep-14 02:59N 33°45' W 118°14'0 0.0
2017-Sep-14 02:29N 33°45' W 118°14'0 0.0
2017-Sep-14 01:59N 33°45' W 118°14'0 0.0
2017-Sep-14 01:29N 33°45' W 118°14'0 0.0
2017-Sep-14 00:59N 33°45' W 118°14'0 0.0
2017-Sep-14 00:29N 33°45' W 118°14'0 0.0
2017-Sep-13 23:59N 33°45' W 118°14'0 0.0
2017-Sep-13 23:23N 33°45' W 118°14'0 0.0
2017-Sep-13 22:53N 33°45' W 118°14'0 0.0
2017-Sep-13 22:29N 33°45' W 118°14'0 0.0
2017-Sep-13 21:53N 33°45' W 118°14'0 0.0
2017-Sep-13 21:29N 33°45' W 118°14'0 0.0
2017-Sep-13 20:59N 33°45' W 118°14'0 0.0
2017-Sep-13 20:29N 33°45' W 118°14'0 0.0
2017-Sep-13 19:59N 33°45' W 118°14'0 0.0
2017-Sep-13 19:23N 33°45' W 118°14'0 0.0
2017-Sep-13 18:53N 33°45' W 118°14'0 0.0
2017-Sep-13 18:29N 33°45' W 118°14'0 0.0
2017-Sep-13 17:59N 33°45' W 118°14'0 0.0
2017-Sep-13 17:23N 33°45' W 118°14'0 0.0
2017-Sep-13 16:53N 33°45' W 118°14'0 0.0
2017-Sep-13 16:29N 33°45' W 118°14'0 0.0
2017-Sep-13 15:53N 33°45' W 118°14'0 0.0
2017-Sep-13 15:23N 33°45' W 118°14'0 0.0
2017-Sep-13 14:59N 33°45' W 118°14'0 0.0
2017-Sep-13 14:29N 33°45' W 118°14'0 0.0
2017-Sep-13 13:53N 33°45' W 118°14'0 0.0
2017-Sep-13 13:29N 33°45' W 118°14'0 0.0
2017-Sep-13 12:59N 33°45' W 118°14'0 0.0
2017-Sep-13 12:29N 33°45' W 118°14'0 0.0
2017-Sep-13 11:59N 33°45' W 118°14'0 0.0
2017-Sep-13 11:11N 33°45' W 118°14'0 0.0
2017-Sep-13 10:59N 33°45' W 118°14'0 0.0
2017-Sep-13 10:29N 33°45' W 118°14'0 0.0
2017-Sep-13 09:59N 33°45' W 118°14'0 0.0
2017-Sep-13 09:23N 33°45' W 118°14'0 0.0
2017-Sep-13 08:59N 33°45' W 118°14'0 0.0
2017-Sep-13 08:29N 33°45' W 118°14'0 0.0
2017-Sep-13 07:53N 33°45' W 118°14'0 0.0
2017-Sep-13 07:17N 33°45' W 118°14'0 0.0
2017-Sep-13 06:59N 33°45' W 118°14'0 0.0
2017-Sep-13 06:29N 33°45' W 118°14'0 0.0
2017-Sep-13 05:59N 33°45' W 118°14'0 0.0
2017-Sep-13 05:29N 33°45' W 118°14'0 0.0
2017-Sep-13 04:59N 33°45' W 118°14'0 0.0
2017-Sep-13 04:29N 33°45' W 118°14'0 0.0
2017-Sep-13 03:59N 33°45' W 118°14'0 0.0
2017-Sep-13 03:29N 33°45' W 118°14'0 0.0
2017-Sep-13 02:59N 33°45' W 118°14'0 0.0
2017-Sep-13 02:29N 33°45' W 118°14'0 0.0
2017-Sep-13 01:59N 33°45' W 118°14'0 0.0
2017-Sep-13 01:29N 33°45' W 118°14'0 0.0
2017-Sep-13 00:59N 33°45' W 118°14'0 0.0
2017-Sep-13 00:29N 33°45' W 118°14'0 0.0
2017-Sep-12 23:59N 33°45' W 118°14'0 0.0
2017-Sep-12 23:29N 33°45' W 118°14'0 0.0
2017-Sep-12 22:59N 33°45' W 118°14'0 0.0
2017-Sep-12 22:29N 33°45' W 118°14'0 0.0
2017-Sep-12 21:59N 33°45' W 118°14'0 0.0
2017-Sep-12 21:29N 33°45' W 118°14'0 0.0
2017-Sep-12 20:53N 33°45' W 118°14'0 0.0
2017-Sep-12 20:29N 33°45' W 118°14'0 0.0
2017-Sep-12 19:53N 33°45' W 118°14'0 0.0
2017-Sep-12 19:26N 33°45' W 118°14'0 0.0
2017-Sep-12 18:53N 33°45' W 118°14'0 0.0
2017-Sep-12 18:23N 33°45' W 118°14'0 0.0
2017-Sep-12 17:59N 33°45' W 118°14'0 0.0
2017-Sep-12 17:02N 33°45' W 118°14'0 0.0
2017-Sep-12 16:53N 33°45' W 118°14'0 0.0
2017-Sep-12 16:29N 33°45' W 118°14'0 0.0
2017-Sep-12 15:53N 33°45' W 118°14'0 0.0
2017-Sep-12 15:29N 33°45' W 118°14'0 0.0
2017-Sep-12 14:59N 33°45' W 118°14'0 0.0
2017-Sep-12 14:23N 33°45' W 118°14'0 0.0
2017-Sep-12 13:56N 33°45' W 118°14'0 0.0
2017-Sep-12 13:29N 33°45' W 118°14'0 0.0
2017-Sep-12 12:56N 33°45' W 118°14'0 0.0
2017-Sep-12 12:29N 33°45' W 118°14'0 0.0
2017-Sep-12 11:59N 33°45' W 118°14'0 0.0
2017-Sep-12 11:29N 33°45' W 118°14'0 0.0
2017-Sep-12 11:01N 33°45' W 118°14'1 1.9
2017-Sep-12 10:30N 33°45' W 118°13'4 7.9
2017-Sep-12 10:00N 33°42' W 118°11'4 8.7
2017-Sep-12 09:31N 33°38' W 118°13'510.2
2017-Sep-12 09:00N 33°36' W 118°19'510.9
2017-Sep-12 08:31N 33°38' W 118°25'611.6
2017-Sep-12 08:00N 33°41' W 118°31'611.6
2017-Sep-12 07:31N 33°44' W 118°37'611.5
2017-Sep-12 07:01N 33°47' W 118°43'611.2
2017-Sep-12 06:30N 33°49' W 118°49'611.3
2017-Sep-12 06:01N 33°52' W 118°55'611.4
2017-Sep-12 05:30N 33°55' W 119°01'611.3
2017-Sep-12 05:00N 33°58' W 119°07'612.6
2017-Sep-12 04:30N 34°01' W 119°13'918.1
2017-Sep-12 04:00N 34°04' W 119°24'1018.7
2017-Sep-12 03:29N 34°07' W 119°35'918.8
2017-Sep-12 03:01N 34°09' W 119°45'1019.2
2017-Sep-12 02:31N 34°12' W 119°56'918.7
2017-Sep-12 02:00N 34°14' W 120°07'918.4
2017-Sep-12 01:30N 34°17' W 120°18'918.5
2017-Sep-12 01:00N 34°19' W 120°29'1018.1
2017-Sep-12 00:29N 34°22' W 120°40'918.3
2017-Sep-12 00:00N 34°24' W 120°50'918.8
2017-Sep-11 23:30N 34°25' W 121°02'918.4
2017-Sep-11 23:00N 34°26' W 121°13'1018.3
2017-Sep-11 22:26N 34°26' W 121°25'818.0
2017-Sep-11 21:59N 34°27' W 121°35'918.6
2017-Sep-11 21:30N 34°28' W 121°46'1618.4
2017-Sep-11 20:37N 34°29' W 122°05'318.6
2017-Sep-11 20:29N 34°29' W 122°09'918.6
2017-Sep-11 20:00N 34°29' W 122°20'  

Dump ship's entire track history